AirNav   ATP
 
 538 users online  

9N2 Philadelphia Seaplane Base
Essington, Pennsylvania, USA

GOING TO ESSINGTON?


FAA INFORMATION EFFECTIVE 11 OCTOBER 2018

Location

FAA Identifier: 9N2
Lat/Long: 39-51-32.4060N / 075-17-58.6710W
39-51.540100N / 075-17.977850W
39.8590017 / -75.2996308
(estimated)
Elevation: 0 ft. / 0 m (estimated)
Variation: 11W (1985)
From city: 1 mile S of ESSINGTON, PA
Time zone: UTC -4 (UTC -5 during Standard Time)
Zip code: 19029

Seaplane Base Operations

Seaplane Base use: Open to the public
Activation date: 02/1946
Control tower: no
ARTCC: NEW YORK CENTER
FSS: WILLIAMSPORT FLIGHT SERVICE STATION
NOTAMs facility: IPT (NOTAM-D service available)
Attendance: UNATTENDED
Pattern altitude: 300 ft. MSL
CHECK PHL TCA CHART FOR LNDG AREA.
Wind indicator: yes
Segmented circle: no

Seaplane Base Communications

CTAF: 122.9
WX ASOS at PHL (2.8 nm E): PHONE 215-492-9617
WX AWOS-3T at OQN (15 nm NW): 121.4 ((610) 692-6190)
WX AWOS-3 at LOM (17 nm N): 118.925 (215-646-1068)
WX ASOS at ILG (18 nm SW): PHONE 302-328-1536
WX ASOS at PNE (19 nm NE): PHONE 215-677-0146

Nearby radio navigation aids

VOR radial/distance  VOR name  Freq  Var
OODr011/13.4WOODSTOWN VORTAC112.8010W
MXEr111/17.5MODENA VORTAC113.2009W
DQOr063/17.9DUPONT VORTAC114.0010W
VCNr331/24.6CEDAR LAKE VOR/DME115.2010W
PTWr160/24.9POTTSTOWN VORTAC116.5009W
ARDr227/29.7YARDLEY VOR/DME108.2010W
GXUr266/33.6MC GUIRE VORTAC110.6012W
ENOr024/38.9SMYRNA VORTAC111.4009W

 
NDB name  Hdg/Dist  Freq  Var  ID
AMBLER194/16.027512WING .. -. --.
RAINBOW355/27.536311WRNB .-. -. -...

Seaplane Base Services

Runway Information

Runway 11W/29W

Dimensions: 9100 x 250 ft. / 2774 x 76 m
Surface: water
RUNWAY 11W  RUNWAY 29W
Traffic pattern: rightleft

Seaplane Base Ownership and Management from official FAA records

Ownership: Publicly-owned
Owner: TOWNSHIP OF TINICUM
629 N GOVERNOR PRINTZ BLVD
ESSINGTON, PA 19029
Phone 610-521-3530
Manager: DAVID SCHREIBER
97 WANNAMAKER AVE
ESSINGTON, PA 19029
Phone 610-521-3530

Seaplane Base Operational Statistics

Aircraft operations: 12/year *
100% transient general aviation
* for 12-month period ending 17 April 2018

Additional Remarks

TSNT TFC CTC PHL APCH CTL FOR TFC ADZYS.
CALL 610-521-3530 PRIOR TO ARR.
NO NIGHT OPS.
FOR CD CTC PHL APCH AT (800) 354-9884.

Instrument Procedures

There are no published instrument procedures at 9N2.

Some nearby airports with instrument procedures:

KPHL - Philadelphia International Airport (3 nm E)
7N7 - Spitfire Aerodrome (9 nm SW)
KOQN - Brandywine Airport (15 nm NW)
17N - Cross Keys Airport (15 nm SE)
KLOM - Wings Field Airport (17 nm N)
19N - Camden County Airport (17 nm E)
KILG - New Castle Airport (18 nm SW)
KPNE - Northeast Philadelphia Airport (19 nm NE)
 
Loc | Ops | Rwys | IFR | FBO | Links
Com | Nav | Svcs | Stats | Notes


 
Area around 9N2 (Philadelphia Seaplane Base)
 
Road maps at: MapQuest Bing Google
 
Aerial photo
WARNING: Photo may not be current or correct
Aerial photo of 9N2 (Philadelphia Seaplane Base)
Do you have a better or more recent aerial photo of Philadelphia Seaplane Base that you would like to share? If so, please send us your photo.

 
Sectional chart

 
Airport distance calculator
Flying to Philadelphia Seaplane Base? Find the distance to fly.

From to 9N2

Sunrise and sunset
Times for 22-Oct-2018
 Local
(UTC-4)
 Zulu
(UTC)
Morning civil twilight06:5210:52
Sunrise07:2011:20
Sunset18:1122:11
Evening civil twilight18:3922:39

Current date and time
Zulu (UTC)  22-Oct-2018 11:09:34
Local (UTC-4)  22-Oct-2018 07:09:34
 
METAR
KPHL 
3nm E 
221054Z 25006KT 10SM SCT047 04/M01 A3028 RMK AO2 SLP252 T00441011
KOQN 
15nm NW 
221055Z AUTO 00000KT 10SM CLR 02/00 A3026 RMK AO2
KLOM 
17nm N 
221055Z AUTO 00000KT 10SM CLR 00/00 A3027 RMK AO1
KILG 
18nm SW 
221051Z 23006KT 10SM FEW045 02/M01 A3029 RMK AO2 SLP257 T00171006 $
KPNE 
19nm NE 
221054Z 26005KT 10SM BKN050 04/M01 A3028 RMK AO2 SLP253 T00441006
TAF
KPHL 
3nm E 
220904Z 2209/2312 28006KT P6SM BKN050 FM221100 26004KT P6SM SCT050 FM221400 23008KT P6SM SCT050 FM222300 21004KT P6SM SCT080 FM230300 20004KT P6SM BKN080
KILG 
18nm SW 
220525Z 2206/2306 25004KT P6SM SCT050 FM221400 22008KT P6SM SCT050 FM222300 18004KT P6SM SCT080 FM230300 VRB03KT P6SM BKN080
KPNE 
19nm NE 
220525Z 2206/2306 27004KT P6SM SCT050 FM221400 23006KT P6SM SCT050 FM222300 20004KT P6SM SCT080 FM230300 VRB03KT P6SM BKN080
NOTAMs
Click for the latest NOTAMs
NOTAMs are issued by the DoD/FAA and will open in a separate window not controlled by AirNav.

 

 
 

Would you like to see your business listed on this page?

 If your business provides an interesting product or service to pilots, flight crews, aircraft, or users of the Philadelphia Seaplane Base, you should consider listing it here.  To start the listing process, click on the button below
 
Add a business
 

Other Pages about Philadelphia Seaplane Base

Update a link
 
Copyright © AirNav, LLC. All rights reserved. Privacy Policy  Contact